createdAt,value
2022-10-30T00:01:25.254Z,100397.38
2022-10-30T00:03:53.904Z,100398.22
2022-10-30T00:06:22.392Z,100386.81
2022-10-30T00:08:50.852Z,100401.69
2022-10-30T00:11:19.576Z,100406.81
2022-10-30T00:14:06.888Z,100407.50
2022-10-30T00:16:41.049Z,100415.41
2022-10-30T00:19:20.413Z,100404.63
2022-10-30T00:21:48.908Z,100416.28
2022-10-30T00:24:17.682Z,100413.56
2022-10-30T00:26:46.176Z,100408.66
2022-10-30T00:29:16.332Z,100408.97
2022-10-30T00:31:46.195Z,100320.28
2022-10-30T00:34:14.730Z,100404.06
2022-10-30T00:36:43.600Z,100404.25
2022-10-30T00:39:12.469Z,100413.38
2022-10-30T00:41:42.090Z,100407.44
2022-10-30T00:44:37.800Z,100406.56
2022-10-30T00:47:08.524Z,100404.50
2022-10-30T00:49:39.604Z,100416.88
2022-10-30T00:52:11.395Z,100407.84
2022-10-30T00:54:40.006Z,100409.75
2022-10-30T00:57:10.892Z,100406.34
2022-10-30T00:59:42.532Z,100409.00
2022-10-30T01:02:11.165Z,100403.72
2022-10-30T01:04:41.140Z,100397.34
2022-10-30T01:07:14.001Z,100398.56
2022-10-30T01:09:43.465Z,100383.84
2022-10-30T01:12:12.011Z,100401.03
2022-10-30T01:14:45.929Z,100415.28
2022-10-30T01:17:35.389Z,100415.06
2022-10-30T01:20:19.288Z,100414.00
2022-10-30T01:23:00.262Z,100411.66
2022-10-30T01:25:50.467Z,100419.88
2022-10-30T01:28:36.619Z,100413.66
2022-10-30T01:31:18.403Z,100416.75
2022-10-30T01:34:00.723Z,100418.16
2022-10-30T01:36:37.952Z,100417.91
2022-10-30T01:39:12.312Z,100403.84
2022-10-30T01:41:41.078Z,100402.66
2022-10-30T01:44:15.100Z,100415.94
2022-10-30T01:47:01.376Z,100398.31
2022-10-30T01:49:54.122Z,100413.66
2022-10-30T01:52:33.898Z,100409.78
2022-10-30T01:55:09.547Z,100368.28
2022-10-30T01:57:45.261Z,100391.34
2022-10-30T02:00:16.763Z,100408.72
2022-10-30T02:02:51.658Z,100387.41
2022-10-30T02:05:31.542Z,100396.59
2022-10-30T02:08:00.730Z,100391.97
2022-10-30T02:10:31.117Z,100381.59
2022-10-30T02:13:00.639Z,100385.44
2022-10-30T02:15:29.203Z,100380.56
2022-10-30T02:17:59.440Z,100386.25
2022-10-30T02:20:30.001Z,100374.44
2022-10-30T02:23:00.558Z,100380.00
2022-10-30T02:25:34.915Z,100376.53
2022-10-30T02:28:03.594Z,100378.72
2022-10-30T02:30:33.120Z,100375.38
2022-10-30T02:33:03.717Z,100371.88
2022-10-30T02:35:35.447Z,100365.34
2022-10-30T02:38:04.790Z,100363.03
2022-10-30T02:40:33.470Z,100362.50
2022-10-30T02:43:01.983Z,100367.66
2022-10-30T02:45:32.172Z,100367.97
2022-10-30T02:48:01.421Z,100379.50
2022-10-30T02:50:30.849Z,100366.03
2022-10-30T02:53:01.620Z,100369.81
2022-10-30T02:55:30.372Z,100377.72
2022-10-30T02:57:58.842Z,100381.16
2022-10-30T03:00:27.409Z,100353.19
2022-10-30T03:02:57.414Z,100366.50
2022-10-30T03:05:26.632Z,100360.72
2022-10-30T03:07:56.703Z,100352.34
2022-10-30T03:10:26.885Z,100364.41
2022-10-30T03:12:55.330Z,100373.03
2022-10-30T03:15:23.796Z,100370.09
2022-10-30T03:17:52.993Z,100374.28
2022-10-30T03:20:21.677Z,100374.06
2022-10-30T03:22:50.290Z,100367.28
2022-10-30T03:25:23.929Z,100368.97
2022-10-30T03:27:57.817Z,100378.28
2022-10-30T03:30:27.117Z,100372.88
2022-10-30T03:32:56.106Z,100365.09
2022-10-30T03:35:25.046Z,100362.03
2022-10-30T03:37:53.992Z,100369.00
2022-10-30T03:40:22.574Z,100367.72
2022-10-30T03:42:51.963Z,100360.50
2022-10-30T03:45:21.875Z,100360.91
2022-10-30T03:47:50.350Z,100356.75
2022-10-30T03:50:18.776Z,100359.09
2022-10-30T03:52:47.529Z,100350.16
2022-10-30T03:55:16.440Z,100356.19
2022-10-30T03:57:44.906Z,100369.56
2022-10-30T04:00:19.426Z,100371.13
2022-10-30T04:02:59.338Z,100376.16
2022-10-30T04:05:30.208Z,100370.94
2022-10-30T04:08:00.053Z,100371.88
2022-10-30T04:10:30.624Z,100370.34
2022-10-30T04:13:03.593Z,100375.63
2022-10-30T04:15:33.157Z,100392.53
2022-10-30T04:18:03.175Z,100392.81
2022-10-30T04:20:32.524Z,100392.09
2022-10-30T04:23:03.032Z,100397.47
2022-10-30T04:25:32.980Z,100395.03
2022-10-30T04:28:02.211Z,100399.28
2022-10-30T04:30:34.212Z,100388.72
2022-10-30T04:33:06.129Z,100394.34
2022-10-30T04:35:37.832Z,100397.72
2022-10-30T04:38:12.296Z,100394.44
2022-10-30T04:40:43.171Z,100396.06
2022-10-30T04:43:13.983Z,100405.34
2022-10-30T04:45:43.779Z,100399.53
2022-10-30T04:48:16.335Z,100400.19
2022-10-30T04:50:46.041Z,100410.34
2022-10-30T04:53:21.451Z,100425.44
2022-10-30T04:55:55.858Z,100426.25
2022-10-30T04:58:24.519Z,100419.47
2022-10-30T05:04:12.646Z,100416.97
2022-10-30T05:06:42.719Z,100422.72
2022-10-30T05:09:11.143Z,100433.09
2022-10-30T05:11:41.485Z,100434.22
2022-10-30T05:14:10.061Z,100436.28
2022-10-30T05:16:39.533Z,100431.94
2022-10-30T05:19:09.254Z,100436.16
2022-10-30T05:21:39.300Z,100435.81
2022-10-30T05:24:08.960Z,100430.66
2022-10-30T05:26:43.641Z,100431.31
2022-10-30T05:29:13.646Z,100425.94
2022-10-30T05:31:42.219Z,100426.53
2022-10-30T05:34:46.127Z,100420.09
2022-10-30T05:37:18.683Z,100423.81
2022-10-30T05:39:47.452Z,100420.59
2022-10-30T05:42:27.549Z,100421.44
2022-10-30T05:45:01.365Z,100420.34
2022-10-30T05:47:35.305Z,100416.03
2022-10-30T05:50:04.058Z,100426.53
2022-10-30T05:52:34.037Z,100418.94
2022-10-30T05:55:04.446Z,100430.78
2022-10-30T05:57:42.626Z,100432.31
2022-10-30T06:00:12.268Z,100443.16
2022-10-30T06:02:46.651Z,100448.50
2022-10-30T06:05:17.602Z,100448.75
2022-10-30T06:07:47.472Z,100451.84
2022-10-30T06:10:16.142Z,100456.53
2022-10-30T06:13:00.473Z,100458.47
2022-10-30T06:15:38.701Z,100448.75
2022-10-30T06:18:07.274Z,100462.34
2022-10-30T06:20:56.685Z,100462.06
2022-10-30T06:23:26.625Z,100463.03
2022-10-30T06:26:18.469Z,100454.72
2022-10-30T06:28:52.184Z,100453.53
2022-10-30T06:33:54.281Z,100451.19
2022-10-30T06:36:23.932Z,100461.63
2022-10-30T06:38:53.854Z,100446.69
2022-10-30T06:41:29.049Z,100452.44
2022-10-30T06:44:16.942Z,100457.41
2022-10-30T06:46:45.416Z,100473.09
2022-10-30T06:49:14.330Z,100467.97
2022-10-30T06:51:43.707Z,100462.63
2022-10-30T06:54:14.420Z,100486.59
2022-10-30T06:56:42.891Z,100481.34
2022-10-30T06:59:35.464Z,100494.19
2022-10-30T07:02:30.201Z,100488.22
2022-10-30T07:05:05.023Z,100494.50
2022-10-30T07:07:33.659Z,100496.63
2022-10-30T07:10:03.688Z,100504.47
2022-10-30T07:12:59.039Z,100500.41
2022-10-30T07:15:51.188Z,100504.50
2022-10-30T07:18:35.752Z,100509.03
2022-10-30T07:21:04.311Z,100513.94
2022-10-30T07:23:33.485Z,100503.75
2022-10-30T07:26:26.314Z,100501.16
2022-10-30T07:28:56.626Z,100505.31
2022-10-30T07:31:41.793Z,100509.47
2022-10-30T07:34:29.470Z,100491.88
2022-10-30T07:37:21.868Z,100492.34
2022-10-30T07:39:59.517Z,100474.47
2022-10-30T07:42:47.045Z,62970.56
2022-10-30T07:45:34.769Z,62970.56
2022-10-30T07:48:22.109Z,62970.56
2022-10-30T07:51:08.668Z,62970.56
2022-10-30T07:53:37.146Z,62970.56
2022-10-30T07:56:06.929Z,62970.56
2022-10-30T07:58:57.216Z,62970.56
2022-10-30T08:01:34.378Z,62970.56
2022-10-30T08:04:26.449Z,62970.56
2022-10-30T08:07:00.354Z,62970.56
2022-10-30T08:09:28.925Z,62970.56
2022-10-30T08:11:57.374Z,62970.56
2022-10-30T08:14:27.699Z,62970.56
2022-10-30T08:17:07.127Z,62970.56
2022-10-30T08:19:35.664Z,62970.56
2022-10-30T08:22:07.207Z,62970.56
2022-10-30T08:24:41.981Z,62970.56
2022-10-30T08:27:11.900Z,62970.56
2022-10-30T08:29:42.532Z,62970.56
2022-10-30T08:32:11.004Z,62970.56
2022-10-30T08:35:02.590Z,62970.56
2022-10-30T08:37:31.884Z,62970.56
2022-10-30T08:40:00.485Z,62970.56
2022-10-30T08:42:52.443Z,62970.56
2022-10-30T08:45:28.112Z,62970.56
2022-10-30T08:48:06.791Z,62970.56
2022-10-30T08:50:39.884Z,62970.56
2022-10-30T08:53:13.105Z,62970.56
2022-10-30T08:55:42.178Z,62970.56
2022-10-30T08:58:22.978Z,62970.56
2022-10-30T09:00:57.209Z,62970.56
2022-10-30T09:03:47.992Z,62970.56
2022-10-30T09:06:45.831Z,62970.56
2022-10-30T09:09:37.629Z,62970.56
2022-10-30T09:12:07.489Z,62970.56
2022-10-30T09:14:42.508Z,62970.56
2022-10-30T09:17:13.926Z,62970.56
2022-10-30T09:19:46.171Z,62970.56
2022-10-30T09:22:34.280Z,62970.56
2022-10-30T09:25:11.222Z,62970.56
2022-10-30T09:27:49.324Z,62970.56
2022-10-30T09:30:19.250Z,62970.56
2022-10-30T09:32:59.014Z,62970.56
2022-10-30T09:35:48.250Z,62970.56
2022-10-30T09:38:16.917Z,62970.56
2022-10-30T09:41:03.572Z,62970.56
2022-10-30T09:43:40.456Z,62970.56
2022-10-30T09:46:21.235Z,62970.56
2022-10-30T09:49:06.883Z,62970.56
2022-10-30T09:51:57.806Z,62970.56
2022-10-30T09:54:38.269Z,62970.56
2022-10-30T09:57:19.989Z,62970.56
2022-10-30T10:00:02.735Z,62970.56
2022-10-30T10:02:37.843Z,62970.56
2022-10-30T10:05:18.310Z,62970.56
2022-10-30T10:08:11.416Z,62970.56
2022-10-30T10:11:02.612Z,62970.56
2022-10-30T10:13:38.571Z,62970.56
2022-10-30T10:16:15.423Z,62970.56
2022-10-30T10:18:47.434Z,62970.56
2022-10-30T10:21:24.849Z,62970.56
2022-10-30T10:23:56.003Z,62970.56
2022-10-30T10:26:37.409Z,62970.56
2022-10-30T10:29:29.520Z,62970.56
2022-10-30T10:32:14.496Z,62970.56
2022-10-30T10:35:09.752Z,62970.56
2022-10-30T10:37:47.856Z,62970.56
2022-10-30T10:40:42.172Z,62970.56
2022-10-30T10:43:22.990Z,62970.56
2022-10-30T10:45:59.339Z,62970.56
2022-10-30T10:48:47.274Z,62970.56
2022-10-30T10:51:19.250Z,62970.56
2022-10-30T10:53:55.064Z,62970.56
2022-10-30T10:56:28.668Z,62970.56
2022-10-30T10:59:00.972Z,62970.56
2022-10-30T11:01:38.116Z,62970.56
2022-10-30T11:04:11.497Z,62970.56
2022-10-30T11:06:42.789Z,62970.56
2022-10-30T11:09:19.643Z,62970.56
2022-10-30T11:11:48.562Z,62970.56
2022-10-30T11:14:20.131Z,62970.56
2022-10-30T11:17:06.796Z,62970.56
2022-10-30T11:19:35.422Z,62970.56
2022-10-30T11:22:09.694Z,62970.56
2022-10-30T11:24:39.516Z,62970.56
2022-10-30T11:27:19.362Z,62970.56
2022-10-30T11:29:54.844Z,62970.56
2022-10-30T11:32:27.300Z,62970.56
2022-10-30T11:35:03.497Z,62970.56
2022-10-30T11:37:33.450Z,62970.56
2022-10-30T11:40:17.469Z,62970.56
2022-10-30T11:42:48.805Z,62970.56
2022-10-30T11:45:20.640Z,62970.56
2022-10-30T11:47:49.319Z,62970.56
2022-10-30T11:50:21.188Z,62970.56
2022-10-30T11:52:52.339Z,62970.56
2022-10-30T11:55:28.196Z,62970.56
2022-10-30T11:57:58.574Z,62970.56
2022-10-30T12:00:29.537Z,62970.56
2022-10-30T12:03:00.988Z,62970.56
2022-10-30T12:05:43.571Z,62970.56
2022-10-30T12:08:22.706Z,62970.56
2022-10-30T12:11:04.739Z,62970.56
2022-10-30T12:13:38.935Z,62970.56
2022-10-30T12:16:11.079Z,62970.56
2022-10-30T12:18:40.864Z,62970.56
2022-10-30T12:21:09.391Z,62970.56
2022-10-30T12:23:39.527Z,62970.56
2022-10-30T12:26:14.105Z,62970.56
2022-10-30T12:28:52.973Z,62970.56
2022-10-30T12:31:27.391Z,62970.56
2022-10-30T12:36:49.885Z,62970.56
2022-10-30T12:39:23.974Z,62970.56
2022-10-30T12:42:01.660Z,62970.56
2022-10-30T12:44:35.468Z,62970.56
2022-10-30T12:47:08.835Z,62970.56
2022-10-30T12:49:42.686Z,62970.56
2022-10-30T12:52:17.196Z,62970.56
2022-10-30T12:54:52.219Z,62970.56
2022-10-30T12:57:27.250Z,62970.56
2022-10-30T13:00:02.943Z,62970.56
2022-10-30T13:02:45.511Z,62970.56
2022-10-30T13:05:27.835Z,62970.56
2022-10-30T13:08:06.064Z,62970.56
2022-10-30T13:10:41.660Z,62970.56
2022-10-30T13:13:16.440Z,62970.56
2022-10-30T13:38:35.985Z,100154.13
2022-10-30T13:41:16.867Z,100151.38
2022-10-30T13:43:54.713Z,100157.06
2022-10-30T13:46:34.742Z,100153.16
2022-10-30T13:49:16.596Z,100145.59
2022-10-30T13:51:47.127Z,100134.47
2022-10-30T13:54:21.956Z,100132.19
2022-10-30T13:56:51.907Z,100122.53
2022-10-30T13:59:42.861Z,100127.97
2022-10-30T14:02:23.650Z,100139.66
2022-10-30T14:04:58.878Z,100123.84
2022-10-30T14:07:34.798Z,100142.53
2022-10-30T14:10:09.904Z,100137.78
2022-10-30T14:12:52.433Z,100139.44
2022-10-30T14:15:28.560Z,100140.00
2022-10-30T14:18:44.771Z,100138.34
2022-10-30T14:21:37.809Z,100131.56
2022-10-30T14:24:22.652Z,100128.53
2022-10-30T14:27:09.735Z,100117.25
2022-10-30T14:29:53.050Z,100123.91
2022-10-30T14:32:40.712Z,100117.72
2022-10-30T14:35:33.290Z,100114.78
2022-10-30T14:38:36.605Z,100104.13
2022-10-30T14:41:37.819Z,100101.75
2022-10-30T14:44:29.433Z,100110.94
2022-10-30T14:47:32.129Z,100110.56
2022-10-30T14:50:11.936Z,100117.28
2022-10-30T14:52:48.104Z,100126.75
2022-10-30T14:55:26.956Z,100125.03
2022-10-30T14:58:15.273Z,100121.41
2022-10-30T15:00:45.723Z,100125.44
2022-10-30T15:03:25.438Z,100122.44
2022-10-30T15:05:57.416Z,100110.19
2022-10-30T15:08:43.749Z,100110.00
2022-10-30T15:11:38.669Z,100107.50
2022-10-30T15:14:20.976Z,100123.56
2022-10-30T15:16:52.794Z,100102.28
2022-10-30T15:19:24.256Z,100111.25
2022-10-30T15:21:55.037Z,100102.53
2022-10-30T15:24:31.246Z,100089.94
2022-10-30T15:27:02.032Z,100084.06
2022-10-30T15:29:33.473Z,100088.38
2022-10-30T15:32:05.669Z,100073.88
2022-10-30T15:34:34.501Z,100073.59
2022-10-30T15:37:12.202Z,100073.75
2022-10-30T15:39:40.624Z,100081.94
2022-10-30T15:42:11.874Z,100075.41
2022-10-30T15:44:43.741Z,100071.94
2022-10-30T15:47:16.988Z,100080.88
2022-10-30T15:49:50.057Z,100079.09
2022-10-30T15:52:23.069Z,100076.16
2022-10-30T15:54:59.090Z,100074.84
2022-10-30T15:57:56.887Z,100080.84
2022-10-30T16:00:24.495Z,100083.88
2022-10-30T16:03:06.838Z,100082.06
2022-10-30T16:05:36.449Z,100075.91
2022-10-30T16:08:13.236Z,100078.72
2022-10-30T16:10:44.343Z,100068.50
2022-10-30T16:13:32.760Z,100071.44
2022-10-30T16:16:02.611Z,100077.25
2022-10-30T16:18:36.086Z,100067.91
2022-10-30T16:21:08.416Z,100077.59
2022-10-30T16:23:42.663Z,100070.00
2022-10-30T16:26:25.990Z,100075.78
2022-10-30T16:28:54.892Z,100070.00
2022-10-30T16:31:24.894Z,100061.88
2022-10-30T16:33:55.028Z,100046.16
2022-10-30T16:36:23.644Z,100066.91
2022-10-30T16:38:52.733Z,100062.28
2022-10-30T16:41:26.715Z,100059.94
2022-10-30T16:44:20.550Z,100059.44
2022-10-30T16:46:52.604Z,100051.34
2022-10-30T16:49:25.020Z,100058.47
2022-10-30T16:51:58.511Z,100058.78
2022-10-30T16:54:30.561Z,100062.47
2022-10-30T16:57:02.211Z,100070.75
2022-10-30T16:59:35.130Z,100062.13
2022-10-30T17:02:08.273Z,100052.84
2022-10-30T17:04:38.281Z,100060.63
2022-10-30T17:07:17.723Z,100073.84
2022-10-30T17:09:48.592Z,100076.31
2022-10-30T17:12:20.910Z,100072.31
2022-10-30T17:14:52.455Z,100081.94
2022-10-30T17:17:39.508Z,100074.13
2022-10-30T17:20:28.248Z,100059.47
2022-10-30T17:23:08.644Z,100072.53
2022-10-30T17:25:38.869Z,100077.75
2022-10-30T17:28:07.822Z,100082.31
2022-10-30T17:30:39.801Z,100077.59
2022-10-30T17:33:34.348Z,100083.25
2022-10-30T17:36:05.286Z,100094.88
2022-10-30T17:38:34.131Z,100095.50
2022-10-30T17:41:03.718Z,100108.16
2022-10-30T17:43:35.224Z,100126.00
2022-10-30T17:46:04.000Z,100116.31
2022-10-30T17:48:32.962Z,100125.56
2022-10-30T17:51:01.661Z,100136.78
2022-10-30T17:53:34.993Z,100129.66
2022-10-30T17:56:06.642Z,100153.75
2022-10-30T17:58:35.293Z,100167.84
2022-10-30T18:01:04.548Z,100163.75
2022-10-30T18:03:33.180Z,100165.03
2022-10-30T18:06:03.329Z,100142.19
2022-10-30T18:08:33.949Z,100167.28
2022-10-30T18:11:02.397Z,100180.41
2022-10-30T18:13:30.833Z,100184.16
2022-10-30T18:15:59.905Z,100195.88
2022-10-30T18:18:28.618Z,100191.47
2022-10-30T18:20:57.050Z,100212.38
2022-10-30T18:26:19.561Z,100219.41
2022-10-30T18:28:48.225Z,100206.38
2022-10-30T18:31:19.065Z,100225.00
2022-10-30T18:33:48.260Z,100224.16
2022-10-30T18:36:18.666Z,100226.66
2022-10-30T18:38:47.331Z,100208.31
2022-10-30T18:41:20.339Z,100223.56
2022-10-30T18:43:48.841Z,100236.38
2022-10-30T18:46:17.948Z,100236.38
2022-10-30T18:48:47.183Z,100223.88
2022-10-30T18:51:22.037Z,100236.63
2022-10-30T18:53:52.766Z,100238.34
2022-10-30T18:56:24.686Z,100234.56
2022-10-30T18:58:56.819Z,100244.19
2022-10-30T19:01:30.948Z,100235.44
2022-10-30T19:04:01.215Z,100228.06
2022-10-30T19:06:30.013Z,100238.63
2022-10-30T19:08:58.453Z,100234.03
2022-10-30T19:11:30.804Z,100234.16
2022-10-30T19:14:00.318Z,100237.34
2022-10-30T19:16:29.988Z,100224.69
2022-10-30T19:18:58.406Z,100227.50
2022-10-30T19:21:28.142Z,100251.66
2022-10-30T19:23:56.690Z,100251.38
2022-10-30T19:26:25.092Z,100262.47
2022-10-30T19:28:54.922Z,100248.31
2022-10-30T19:31:23.364Z,100261.13
2022-10-30T19:33:54.561Z,100261.13
2022-10-30T19:36:31.124Z,100254.44
2022-10-30T19:39:05.766Z,100249.91
2022-10-30T19:41:37.527Z,100249.16
2022-10-30T19:44:07.961Z,100246.94
2022-10-30T19:46:37.408Z,100256.28
2022-10-30T19:49:16.338Z,100241.19
2022-10-30T19:51:44.770Z,100238.94
2022-10-30T19:54:13.415Z,100240.59
2022-10-30T19:56:43.570Z,100228.66
2022-10-30T19:59:16.161Z,100240.38
2022-10-30T20:01:45.139Z,100226.09
2022-10-30T20:04:14.314Z,100202.66
2022-10-30T20:06:42.883Z,100204.78
2022-10-30T20:09:12.315Z,100205.00
2022-10-30T20:11:41.407Z,100194.72
2022-10-30T20:14:10.921Z,100207.50
2022-10-30T20:16:40.856Z,100206.97
2022-10-30T20:19:27.988Z,100190.44
2022-10-30T20:21:56.732Z,100185.31
2022-10-30T20:24:25.173Z,100179.19
2022-10-30T20:26:56.578Z,100187.38
2022-10-30T20:29:26.109Z,100188.63
2022-10-30T20:31:56.248Z,100181.56
2022-10-30T20:34:25.505Z,100179.13
2022-10-30T20:36:55.067Z,100176.31
2022-10-30T20:39:23.545Z,100181.75
2022-10-30T20:41:51.957Z,100182.72
2022-10-30T20:44:20.409Z,100178.00
2022-10-30T20:46:49.665Z,100169.09
2022-10-30T20:49:23.387Z,100144.13
2022-10-30T20:51:51.914Z,100168.53
2022-10-30T20:54:22.244Z,100165.72
2022-10-30T20:56:52.088Z,100138.66
2022-10-30T20:59:20.804Z,100164.09
2022-10-30T21:01:49.538Z,100151.53
2022-10-30T21:04:19.616Z,100156.88
2022-10-30T21:06:48.445Z,100146.31
2022-10-30T21:09:17.669Z,100152.94
2022-10-30T21:11:46.083Z,100152.34
2022-10-30T21:14:14.507Z,100156.47
2022-10-30T21:16:42.943Z,100153.16
2022-10-30T21:19:11.327Z,100157.59
2022-10-30T21:21:41.148Z,100161.28
2022-10-30T21:24:10.126Z,100149.06
2022-10-30T21:26:38.955Z,100125.50
2022-10-30T21:29:07.484Z,100135.38
2022-10-30T21:31:35.948Z,100124.97
2022-10-30T21:34:04.531Z,100135.38
2022-10-30T21:36:33.957Z,100136.91
2022-10-30T21:39:04.592Z,100137.63
2022-10-30T21:41:33.779Z,100136.66
2022-10-30T21:44:02.382Z,100155.97
2022-10-30T21:46:32.675Z,100137.91
2022-10-30T21:49:07.142Z,100130.56
2022-10-30T21:51:35.750Z,100144.69
2022-10-30T21:54:05.628Z,100133.06
2022-10-30T21:56:35.316Z,100134.97
2022-10-30T21:59:05.010Z,100122.75
2022-10-30T22:01:36.027Z,100113.91
2022-10-30T22:04:06.902Z,100112.94
2022-10-30T22:06:39.256Z,100100.72
2022-10-30T22:09:09.414Z,100106.44
2022-10-30T22:11:38.716Z,100102.00
2022-10-30T22:14:08.021Z,100096.75
2022-10-30T22:16:38.307Z,100100.66
2022-10-30T22:19:07.906Z,100087.34
2022-10-30T22:21:36.495Z,100077.34
2022-10-30T22:24:05.946Z,100072.63
2022-10-30T22:26:35.859Z,100075.97
2022-10-30T22:29:04.511Z,100076.25
2022-10-30T22:31:33.310Z,100068.22
2022-10-30T22:34:02.534Z,100069.03
2022-10-30T22:36:32.641Z,100052.69
2022-10-30T22:39:02.914Z,100056.13
2022-10-30T22:41:36.460Z,100064.03
2022-10-30T22:44:09.135Z,100058.75
2022-10-30T22:46:38.392Z,100060.09
2022-10-30T22:49:07.800Z,100059.41
2022-10-30T22:51:38.004Z,100067.91
2022-10-30T22:54:08.334Z,100068.59
2022-10-30T22:56:38.602Z,100053.78
2022-10-30T22:59:11.458Z,100039.31
2022-10-30T23:01:41.379Z,100043.22
2022-10-30T23:04:14.146Z,100039.03
2022-10-30T23:06:43.442Z,100050.00
2022-10-30T23:09:17.304Z,100057.31
2022-10-30T23:11:46.107Z,100054.53
2022-10-30T23:14:16.591Z,100054.13
2022-10-30T23:16:45.015Z,100053.47
2022-10-30T23:19:13.423Z,100048.72
2022-10-30T23:21:41.857Z,100035.44
2022-10-30T23:24:10.424Z,100036.81
2022-10-30T23:26:38.930Z,100025.84
2022-10-30T23:29:07.375Z,100020.47
2022-10-30T23:31:39.348Z,100012.41
2022-10-30T23:34:10.402Z,100025.19
2022-10-30T23:36:38.974Z,100021.88
2022-10-30T23:39:09.305Z,100010.50
2022-10-30T23:41:37.898Z,100008.16
2022-10-30T23:44:08.261Z,100004.25
2022-10-30T23:46:38.670Z,100002.88
2022-10-30T23:49:07.602Z,99996.63
2022-10-30T23:51:36.061Z,99981.38
2022-10-30T23:54:05.008Z,99984.56
2022-10-30T23:56:33.651Z,99971.09
2022-10-30T23:59:02.594Z,99977.50
